Time;durP1;ratioP1;P1;durP2;ratioP2;P2;SDS_P1;SDS_P2;PMS_P1;PMS_P2;Temp;Humidity;BMP_temperature;BMP_pressure;BME280_temperature;BME280_humidity;BME280_pressure;Samples;Min_cycle;Max_cycle;Signal;HPM_P1;HPM_P2
2022/10/03 00:01:18;;;;;;;3.50;3.20;;;9.20;99.90;;;;;;5024089;28;20435;-80
2022/10/03 00:04:36;;;;;;;3.43;3.13;;;9.20;99.90;;;;;;5037924;28;20476;-79
2022/10/03 00:07:49;;;;;;;3.60;3.00;;;9.10;99.90;;;;;;5026904;28;20375;-80
2022/10/03 00:10:57;;;;;;;4.17;3.87;;;9.10;99.90;;;;;;5037960;28;20389;-80
2022/10/03 00:14:19;;;;;;;6.30;3.53;;;9.10;99.90;;;;;;5037804;28;20372;-80
2022/10/03 00:17:28;;;;;;;3.53;3.03;;;9.20;99.90;;;;;;5038491;28;20386;-80
2022/10/03 00:20:39;;;;;;;3.70;3.40;;;9.20;99.90;;;;;;5039662;28;20382;-80
2022/10/03 00:23:39;;;;;;;4.00;3.67;;;9.20;99.90;;;;;;5079431;28;20397;-80
2022/10/03 00:26:36;;;;;;;4.17;3.80;;;9.20;99.90;;;;;;5066268;28;20520;-81
2022/10/03 00:29:39;;;;;;;6.00;5.40;;;9.20;99.90;;;;;;5063957;28;20440;-80
2022/10/03 00:32:42;;;;;;;4.50;3.87;;;9.30;99.90;;;;;;5065457;28;20408;-80
2022/10/03 00:35:48;;;;;;;5.03;4.53;;;9.40;99.90;;;;;;5050822;28;20447;-80
2022/10/03 00:38:59;;;;;;;7.87;3.50;;;9.40;99.90;;;;;;5065508;28;20397;-80
2022/10/03 00:42:19;;;;;;;7.83;4.43;;;9.50;99.90;;;;;;5052982;28;20381;-80
2022/10/03 00:45:39;;;;;;;4.27;3.87;;;9.40;99.90;;;;;;5079225;28;20411;-79
2022/10/03 00:48:49;;;;;;;5.37;3.93;;;9.30;99.90;;;;;;5064335;28;20433;-80
2022/10/03 00:52:03;;;;;;;7.20;4.40;;;9.20;99.90;;;;;;5080182;28;20384;-79
2022/10/03 00:55:09;;;;;;;8.83;5.17;;;9.20;99.90;;;;;;5079550;28;20377;-81
2022/10/03 00:58:19;;;;;;;11.13;4.93;;;9.20;99.90;;;;;;5065071;28;20451;-80
2022/10/03 01:01:40;;;;;;;5.07;4.57;;;9.10;99.90;;;;;;5050804;28;20861;-81
2022/10/03 01:04:42;;;;;;;5.03;4.23;;;9.00;99.90;;;;;;5038594;28;20931;-81
2022/10/03 01:07:55;;;;;;;6.40;4.70;;;9.00;99.90;;;;;;5038783;28;20398;-80
2022/10/03 01:11:19;;;;;;;4.70;4.00;;;9.00;99.90;;;;;;5039102;28;20459;-80
2022/10/03 01:14:22;;;;;;;8.17;6.30;;;8.90;99.90;;;;;;5029887;28;20383;-80
2022/10/03 01:17:37;;;;;;;6.33;4.47;;;8.90;99.90;;;;;;5021898;28;20460;-79
2022/10/03 01:20:53;;;;;;;14.03;5.83;;;8.80;99.90;;;;;;5029592;28;20475;-80
2022/10/03 01:23:58;;;;;;;7.07;5.30;;;8.60;99.90;;;;;;5018911;28;20406;-80
2022/10/03 01:26:58;;;;;;;11.53;4.93;;;8.50;99.90;;;;;;5029086;28;20386;-81
2022/10/03 01:33:22;;;;;;;9.50;4.10;;;8.40;99.90;;;;;;5029407;28;20418;-80
2022/10/03 01:36:27;;;;;;;8.43;4.60;;;8.40;99.90;;;;;;5042266;28;20739;-80
2022/10/03 01:39:20;;;;;;;6.80;4.93;;;8.30;99.90;;;;;;5042190;28;20390;-81
2022/10/03 01:42:13;;;;;;;8.03;5.23;;;8.30;99.90;;;;;;5027258;28;20385;-81
2022/10/03 01:45:21;;;;;;;6.37;4.73;;;8.30;99.90;;;;;;4967005;28;20433;-81
2022/10/03 01:48:14;;;;;;;5.33;4.80;;;8.30;99.90;;;;;;4966848;28;20945;-81
2022/10/03 01:51:10;;;;;;;6.53;4.43;;;8.40;99.90;;;;;;4968174;28;20359;-80
2022/10/03 01:54:16;;;;;;;7.70;4.50;;;8.40;99.90;;;;;;4955134;28;20903;-81
2022/10/03 01:57:11;;;;;;;26.33;5.67;;;8.30;99.90;;;;;;4971504;28;20425;-79
2022/10/03 02:00:19;;;;;;;4.57;4.13;;;8.40;99.90;;;;;;4969955;28;20384;-80
2022/10/03 02:03:20;;;;;;;12.00;4.60;;;8.50;99.90;;;;;;4996539;28;20483;-80
2022/10/03 02:06:26;;;;;;;6.13;4.80;;;8.40;99.90;;;;;;5012900;28;20410;-81
2022/10/03 02:09:39;;;;;;;6.80;4.73;;;8.50;99.90;;;;;;5047433;28;20489;-81
2022/10/03 02:12:34;;;;;;;4.63;4.17;;;8.60;99.90;;;;;;5076828;28;20398;-80
2022/10/03 02:15:38;;;;;;;5.20;4.70;;;8.60;99.90;;;;;;5064889;28;20731;-80
2022/10/03 02:18:35;;;;;;;6.37;5.77;;;8.60;99.90;;;;;;5060475;28;20440;-81
2022/10/03 02:21:26;;;;;;;6.90;5.47;;;8.60;99.90;;;;;;5046195;28;20385;-80
2022/10/03 02:24:27;;;;;;;6.10;4.77;;;8.60;99.90;;;;;;5061030;28;20936;-81
2022/10/03 02:27:40;;;;;;;5.73;4.87;;;8.60;99.90;;;;;;5061804;28;20382;-81
2022/10/03 02:31:05;;;;;;;5.03;4.60;;;8.60;99.90;;;;;;5060086;28;20750;-80
2022/10/03 02:34:18;;;;;;;7.50;5.40;;;8.60;99.90;;;;;;5060466;28;20369;-80
2022/10/03 02:37:35;;;;;;;5.20;4.70;;;8.50;99.90;;;;;;5061368;28;20351;-80
2022/10/03 02:40:56;;;;;;;4.93;4.30;;;8.40;99.90;;;;;;5046546;28;20386;-80
2022/10/03 02:44:16;;;;;;;6.10;5.50;;;8.40;99.90;;;;;;5060872;28;20393;-81
2022/10/03 02:47:39;;;;;;;5.00;4.03;;;8.30;99.90;;;;;;5060459;28;20413;-80
2022/10/03 02:50:47;;;;;;;5.13;4.23;;;8.30;99.90;;;;;;5059930;28;20478;-80
2022/10/03 02:53:59;;;;;;;5.70;4.50;;;8.40;99.90;;;;;;5025300;28;20412;-80
2022/10/03 02:57:19;;;;;;;6.50;4.80;;;8.40;99.90;;;;;;5039226;28;20473;-80
2022/10/03 03:00:10;;;;;;;6.33;4.87;;;8.40;99.90;;;;;;5038477;28;20418;-81
2022/10/03 03:03:19;;;;;;;7.83;4.40;;;8.50;99.90;;;;;;5025409;28;20478;-80
2022/10/03 03:06:36;;;;;;;9.47;4.90;;;8.50;99.90;;;;;;5038432;28;20854;-80
2022/10/03 03:09:56;;;;;;;6.10;4.20;;;8.60;99.90;;;;;;5038796;28;20541;-81
2022/10/03 03:13:21;;;;;;;5.33;4.90;;;8.70;99.90;;;;;;5010918;28;20407;-80
2022/10/03 03:16:28;;;;;;;5.97;4.83;;;8.80;99.90;;;;;;5038159;28;20406;-80
2022/10/03 03:19:45;;;;;;;4.67;4.30;;;8.80;99.90;;;;;;5037686;28;20770;-80
2022/10/03 03:22:49;;;;;;;5.60;4.67;;;8.90;99.90;;;;;;5026913;28;20758;-80
2022/10/03 03:25:49;;;;;;;5.07;4.57;;;8.80;99.90;;;;;;5059909;28;20996;-80
2022/10/03 03:28:59;;;;;;;7.80;4.43;;;8.90;99.90;;;;;;5059484;28;20440;-80
2022/10/03 03:32:03;;;;;;;4.50;4.10;;;8.90;99.90;;;;;;5060359;28;20390;-80
2022/10/03 03:35:12;;;;;;;5.07;4.67;;;8.80;99.90;;;;;;5061630;28;20389;-78
2022/10/03 03:38:20;;;;;;;5.20;4.53;;;8.80;99.90;;;;;;5065488;28;20452;-78
2022/10/03 03:41:29;;;;;;;4.30;3.83;;;8.70;99.90;;;;;;5065857;28;20806;-78
2022/10/03 03:44:36;;;;;;;5.33;4.20;;;8.70;99.90;;;;;;5064505;28;20408;-80
2022/10/03 03:47:53;;;;;;;5.20;4.70;;;8.60;99.90;;;;;;5044218;28;20571;-80
2022/10/03 03:51:15;;;;;;;5.27;4.50;;;8.70;99.90;;;;;;5024857;28;20387;-81
2022/10/03 03:54:29;;;;;;;4.83;3.73;;;8.60;99.90;;;;;;5051149;28;20413;-80
2022/10/03 03:57:31;;;;;;;6.97;4.33;;;8.60;99.90;;;;;;5059755;28;20410;-81
2022/10/03 04:00:34;;;;;;;5.90;3.90;;;8.70;99.90;;;;;;5058604;28;20368;-80
2022/10/03 04:03:39;;;;;;;6.20;4.87;;;8.80;99.90;;;;;;5059038;28;20488;-81
2022/10/03 04:06:55;;;;;;;5.27;4.70;;;8.80;99.90;;;;;;5059817;28;20436;-80
2022/10/03 04:10:19;;;;;;;5.80;4.60;;;8.70;99.90;;;;;;5045557;28;20498;-80
2022/10/03 04:13:30;;;;;;;7.53;4.13;;;8.60;99.90;;;;;;5040206;28;20464;-80
2022/10/03 04:19:57;;;;;;;4.13;3.73;;;8.40;99.90;;;;;;5039193;28;20387;-80
2022/10/03 04:23:07;;;;;;;3.67;3.30;;;8.30;99.90;;;;;;5039460;28;20386;-80
2022/10/03 04:26:10;;;;;;;4.10;3.53;;;8.10;99.90;;;;;;5038474;28;20386;-81
2022/10/03 04:29:26;;;;;;;3.93;3.00;;;8.00;99.90;;;;;;5037414;28;20488;-80
2022/10/03 04:32:41;;;;;;;4.20;3.77;;;8.00;99.90;;;;;;5038896;28;20415;-80
2022/10/03 04:35:47;;;;;;;4.40;3.77;;;8.10;99.90;;;;;;5032394;28;20933;-80
2022/10/03 04:38:57;;;;;;;16.70;4.20;;;8.10;99.90;;;;;;5058055;28;20544;-80
2022/10/03 04:41:51;;;;;;;4.43;3.97;;;8.20;99.90;;;;;;5043751;28;20386;-80
2022/10/03 04:45:00;;;;;;;6.13;3.83;;;8.30;99.90;;;;;;5057707;28;20410;-80
2022/10/03 04:47:52;;;;;;;5.50;4.20;;;8.40;99.90;;;;;;5057907;28;20378;-80
2022/10/03 04:51:01;;;;;;;5.93;4.73;;;8.50;99.90;;;;;;5057905;28;20448;-80
2022/10/03 04:54:01;;;;;;;8.40;4.17;;;8.50;99.90;;;;;;5058935;28;20390;-80
2022/10/03 04:57:28;;;;;;;4.47;4.07;;;8.70;99.90;;;;;;5022478;28;20478;-80
2022/10/03 05:00:40;;;;;;;4.73;4.03;;;8.60;99.90;;;;;;5026445;28;20447;-80
2022/10/03 05:03:51;;;;;;;5.40;4.43;;;8.60;99.90;;;;;;5039896;28;20751;-80
2022/10/03 05:06:52;;;;;;;7.03;5.90;;;8.70;99.90;;;;;;5040095;28;20385;-80
2022/10/03 05:09:52;;;;;;;5.97;5.23;;;8.60;99.90;;;;;;5027156;28;20488;-81
2022/10/03 05:12:47;;;;;;;4.70;4.23;;;8.70;99.90;;;;;;5040154;28;20437;-80
2022/10/03 05:15:49;;;;;;;6.77;5.10;;;8.60;99.90;;;;;;5040204;28;20397;-80
2022/10/03 05:18:45;;;;;;;4.87;4.37;;;8.60;99.90;;;;;;5030777;28;20425;-79
2022/10/03 05:21:55;;;;;;;7.60;4.90;;;8.40;99.90;;;;;;5045556;28;20502;-79
2022/10/03 05:24:56;;;;;;;4.10;3.70;;;8.50;99.90;;;;;;5034715;28;20394;-79
2022/10/03 05:27:50;;;;;;;5.53;5.03;;;8.50;99.90;;;;;;5036805;28;20494;-80
2022/10/03 05:30:43;;;;;;;4.97;4.43;;;8.70;99.90;;;;;;5064618;28;20444;-79
2022/10/03 05:33:46;;;;;;;6.30;4.33;;;8.70;99.90;;;;;;5068200;28;20882;-79
2022/10/03 05:36:52;;;;;;;6.20;5.60;;;8.80;99.90;;;;;;5060461;28;20751;-81
2022/10/03 05:39:52;;;;;;;4.60;4.20;;;8.90;99.90;;;;;;5046333;28;20410;-81
2022/10/03 05:43:01;;;;;;;5.80;5.30;;;8.70;99.90;;;;;;5047208;28;20878;-80
2022/10/03 05:45:56;;;;;;;5.73;4.70;;;8.70;99.90;;;;;;5060691;28;20386;-80
2022/10/03 05:49:15;;;;;;;9.30;5.23;;;8.60;99.90;;;;;;5060279;28;20446;-80
2022/10/03 05:52:26;;;;;;;5.30;4.43;;;8.70;99.90;;;;;;5060103;28;20830;-80
2022/10/03 05:55:31;;;;;;;9.17;4.93;;;8.80;99.90;;;;;;5060053;28;20413;-80
2022/10/03 05:58:40;;;;;;;4.33;3.93;;;8.80;99.90;;;;;;5061636;28;20360;-81
2022/10/03 06:01:46;;;;;;;5.10;4.40;;;8.90;99.90;;;;;;5061365;28;20390;-80
2022/10/03 06:05:00;;;;;;;6.20;4.93;;;9.00;99.90;;;;;;5046727;28;20372;-81
2022/10/03 06:08:21;;;;;;;5.63;4.47;;;9.10;99.90;;;;;;5061392;28;20382;-81
2022/10/03 06:11:39;;;;;;;7.80;5.07;;;9.20;99.90;;;;;;5061043;28;20407;-80
2022/10/03 06:14:34;;;;;;;6.50;5.63;;;9.40;99.90;;;;;;5060760;28;20390;-81
2022/10/03 06:17:52;;;;;;;6.80;5.13;;;9.50;99.90;;;;;;5033532;28;20556;-81
2022/10/03 06:21:05;;;;;;;7.73;6.17;;;9.60;99.90;;;;;;5060325;28;20429;-81
2022/10/03 06:24:29;;;;;;;7.50;5.03;;;9.80;99.90;;;;;;5060875;28;20482;-81
2022/10/03 06:27:51;;;;;;;7.40;5.33;;;10.00;99.90;;;;;;5061244;28;20398;-81
2022/10/03 06:30:53;;;;;;;12.13;6.87;;;9.90;99.90;;;;;;5059363;28;20410;-81
2022/10/03 06:34:01;;;;;;;6.43;5.83;;;9.80;99.90;;;;;;5060439;28;20425;-81
2022/10/03 06:37:09;;;;;;;6.60;5.00;;;9.40;99.90;;;;;;5059728;28;20432;-81
2022/10/03 06:40:30;;;;;;;5.17;4.70;;;9.40;99.90;;;;;;5073447;28;20412;-81
2022/10/03 06:43:43;;;;;;;11.93;5.63;;;9.20;99.90;;;;;;5059864;28;20378;-82
2022/10/03 06:46:47;;;;;;;5.37;4.73;;;9.20;99.90;;;;;;5060815;28;20378;-81
2022/10/03 06:49:55;;;;;;;5.80;4.87;;;9.30;99.90;;;;;;5059995;28;20441;-82
2022/10/03 06:53:10;;;;;;;6.23;5.60;;;9.50;99.90;;;;;;5059545;28;20490;-81
2022/10/03 06:56:30;;;;;;;6.30;5.80;;;9.60;99.90;;;;;;5072893;28;20394;-82
2022/10/03 06:59:41;;;;;;;6.07;5.40;;;9.60;99.90;;;;;;5060379;28;20745;-82
2022/10/03 07:02:55;;;;;;;9.33;7.23;;;9.50;99.90;;;;;;5060356;28;20453;-82
2022/10/03 07:06:10;;;;;;;9.63;6.20;;;9.40;99.90;;;;;;5060001;28;20501;-81
2022/10/03 07:09:17;;;;;;;9.40;7.10;;;9.40;99.90;;;;;;5059528;28;20416;-82
2022/10/03 07:12:32;;;;;;;6.50;6.00;;;9.30;99.90;;;;;;5059259;28;20387;-82
2022/10/03 07:15:50;;;;;;;10.40;7.67;;;9.30;99.90;;;;;;5061152;28;20429;-81
2022/10/03 07:19:02;;;;;;;7.37;6.17;;;9.30;99.90;;;;;;5065076;28;20756;-80
2022/10/03 07:22:22;;;;;;;8.20;6.77;;;9.40;99.90;;;;;;5059770;28;20369;-80
2022/10/03 07:25:34;;;;;;;8.03;6.73;;;9.60;99.90;;;;;;5049623;28;20437;-80
2022/10/03 07:28:41;;;;;;;7.57;6.57;;;9.80;99.90;;;;;;5044701;28;20448;-81
2022/10/03 07:31:54;;;;;;;9.53;8.20;;;10.10;99.90;;;;;;5059315;28;20354;-80
2022/10/03 07:35:02;;;;;;;7.70;6.90;;;10.40;99.90;;;;;;5059514;28;20401;-80
2022/10/03 07:41:53;;;;;;;14.30;8.40;;;10.80;99.90;;;;;;5048269;28;20382;-80
2022/10/03 07:45:09;;;;;;;9.67;7.87;;;11.10;99.90;;;;;;5047257;28;20418;-80
2022/10/03 07:48:31;;;;;;;7.13;6.17;;;11.30;99.90;;;;;;5058791;28;20446;-81
2022/10/03 07:51:36;;;;;;;11.77;7.67;;;11.60;99.90;;;;;;5037739;28;20414;-81
2022/10/03 07:54:53;;;;;;;11.50;7.17;;;11.90;99.90;;;;;;5015027;28;20475;-80
2022/10/03 07:58:09;;;;;;;7.30;6.30;;;12.20;99.90;;;;;;5039882;28;20840;-81
2022/10/03 08:01:19;;;;;;;9.73;7.17;;;12.30;99.90;;;;;;5041704;28;20386;-79
2022/10/03 08:04:43;;;;;;;6.33;5.07;;;12.60;99.90;;;;;;5039985;28;20754;-81
2022/10/03 08:07:46;;;;;;;6.83;5.90;;;12.80;99.90;;;;;;5048600;28;20474;-82
2022/10/03 08:11:01;;;;;;;10.93;5.20;;;13.00;99.90;;;;;;5046041;28;20401;-81
2022/10/03 08:14:19;;;;;;;7.13;5.40;;;13.10;99.90;;;;;;5071933;28;20830;-80
2022/10/03 08:17:40;;;;;;;9.30;6.10;;;13.20;99.90;;;;;;5047515;28;20385;-79
2022/10/03 08:20:48;;;;;;;7.63;4.50;;;13.20;99.90;;;;;;5059867;28;20382;-79
2022/10/03 08:24:06;;;;;;;6.40;4.70;;;13.30;99.90;;;;;;5058438;28;20374;-82
2022/10/03 08:27:17;;;;;;;5.30;4.47;;;13.20;99.90;;;;;;5072257;28;20401;-79
2022/10/03 08:30:25;;;;;;;4.23;3.30;;;13.10;99.90;;;;;;5058452;28;20452;-80
2022/10/03 08:33:30;;;;;;;5.33;4.87;;;13.20;99.90;;;;;;5042720;28;20444;-78
2022/10/03 08:36:45;;;;;;;6.17;4.27;;;13.30;99.90;;;;;;5079675;28;20369;-77
2022/10/03 08:40:10;;;;;;;6.30;4.67;;;13.30;99.90;;;;;;5042020;28;20472;-80
2022/10/03 08:43:30;;;;;;;10.90;4.83;;;13.30;99.90;;;;;;5081429;28;20382;-79
2022/10/03 08:46:42;;;;;;;4.43;4.03;;;13.30;99.90;;;;;;5066906;28;20385;-79
2022/10/03 08:49:50;;;;;;;9.57;4.80;;;13.50;99.90;;;;;;5061876;28;21000;-81
2022/10/03 08:53:10;;;;;;;6.53;4.50;;;13.40;99.90;;;;;;5066393;28;20734;-79
2022/10/03 08:56:06;;;;;;;13.13;5.17;;;13.40;99.90;;;;;;5064996;28;20389;-79
2022/10/03 08:59:22;;;;;;;7.53;4.50;;;13.40;99.90;;;;;;5066432;28;20409;-78
2022/10/03 09:02:43;;;;;;;8.60;4.23;;;13.50;99.90;;;;;;5047569;28;20451;-81
2022/10/03 09:05:59;;;;;;;8.23;4.73;;;13.60;99.90;;;;;;5081306;28;20392;-81
2022/10/03 09:09:04;;;;;;;11.83;3.70;;;13.70;99.90;;;;;;5069245;28;20451;-81
2022/10/03 09:12:09;;;;;;;9.07;4.47;;;13.80;99.90;;;;;;5054886;28;20434;-81
2022/10/03 09:15:28;;;;;;;13.97;5.10;;;13.80;99.90;;;;;;5042134;28;20409;-81
2022/10/03 09:18:42;;;;;;;9.17;3.97;;;13.90;99.90;;;;;;5057975;28;20857;-81
2022/10/03 09:21:51;;;;;;;9.27;4.30;;;14.00;99.90;;;;;;5052351;28;20978;-81
2022/10/03 09:25:00;;;;;;;6.80;3.77;;;14.10;99.90;;;;;;5054881;28;20389;-80
2022/10/03 09:28:20;;;;;;;12.03;4.53;;;14.20;99.90;;;;;;5045209;28;20449;-79
2022/10/03 09:31:39;;;;;;;8.40;4.20;;;14.40;99.90;;;;;;5047260;28;20448;-81
2022/10/03 09:34:54;;;;;;;12.53;3.63;;;14.50;99.90;;;;;;5064045;28;20406;-81
2022/10/03 09:38:10;;;;;;;6.70;4.33;;;14.60;99.90;;;;;;5048241;28;20815;-81
2022/10/03 09:41:20;;;;;;;9.00;5.03;;;14.70;99.90;;;;;;5065569;28;20378;-81
2022/10/03 09:44:39;;;;;;;7.80;4.70;;;15.10;99.90;;;;;;5047234;28;20389;-81
2022/10/03 09:47:50;;;;;;;9.90;4.07;;;15.50;99.90;;;;;;5045060;28;20415;-79
2022/10/03 09:51:01;;;;;;;5.07;3.83;;;15.40;99.90;;;;;;5063487;28;20397;-81
2022/10/03 09:54:18;;;;;;;4.07;3.20;;;15.30;99.90;;;;;;5052273;28;20405;-81
2022/10/03 09:57:30;;;;;;;9.77;4.27;;;15.20;99.90;;;;;;5072923;28;20445;-79
2022/10/03 10:00:21;;;;;;;4.63;3.23;;;14.90;99.90;;;;;;5052063;28;20432;-79
2022/10/03 10:03:29;;;;;;;8.10;4.60;;;14.90;99.90;;;;;;5060043;28;20454;-78
2022/10/03 10:06:31;;;;;;;7.10;3.10;;;14.60;99.90;;;;;;5067905;28;20413;-81
2022/10/03 10:09:39;;;;;;;4.33;2.97;;;14.90;99.90;;;;;;5049876;28;20441;-79
2022/10/03 10:12:44;;;;;;;4.80;2.90;;;16.20;99.90;;;;;;5063959;28;20891;-81
2022/10/03 10:15:59;;;;;;;9.33;2.10;;;17.80;99.90;;;;;;5062193;28;20381;-81
2022/10/03 10:19:21;;;;;;;3.53;2.30;;;18.00;99.90;;;;;;5061028;28;20385;-81
2022/10/03 10:22:27;;;;;;;9.40;3.57;;;17.70;99.90;;;;;;5062113;28;20417;-81
2022/10/03 10:25:32;;;;;;;4.40;2.60;;;17.50;99.90;;;;;;5061265;28;20909;-82
2022/10/03 10:28:50;;;;;;;8.00;2.37;;;17.60;99.90;;;;;;5048937;28;20962;-79
2022/10/03 10:32:03;;;;;;;4.57;2.83;;;17.40;99.90;;;;;;5060671;28;20378;-81
2022/10/03 10:35:20;;;;;;;11.93;3.00;;;17.20;99.90;;;;;;5060300;28;20389;-81
2022/10/03 10:38:30;;;;;;;3.97;2.30;;;17.00;99.90;;;;;;5060084;28;20406;-80
2022/10/03 10:41:45;;;;;;;6.27;2.90;;;16.60;99.90;;;;;;5060621;28;20389;-81
2022/10/03 10:44:57;;;;;;;2.40;2.10;;;16.30;99.90;;;;;;5060507;28;20422;-81
2022/10/03 10:48:12;;;;;;;4.10;2.13;;;16.00;99.90;;;;;;5061787;28;20415;-81
2022/10/03 10:51:31;;;;;;;2.43;2.23;;;15.90;99.90;;;;;;5059202;28;20385;-81
2022/10/03 10:54:52;;;;;;;5.23;2.60;;;15.80;99.90;;;;;;5059800;28;20386;-82
2022/10/03 10:58:12;;;;;;;9.10;3.50;;;16.10;99.90;;;;;;5060462;28;20536;-81
2022/10/03 11:01:30;;;;;;;6.83;2.70;;;16.10;99.90;;;;;;5060406;28;20444;-81
2022/10/03 11:04:50;;;;;;;3.83;2.37;;;16.00;99.90;;;;;;5060134;28;20485;-81
2022/10/03 11:08:12;;;;;;;3.70;2.50;;;15.90;99.90;;;;;;5059954;28;20449;-81
2022/10/03 11:11:32;;;;;;;6.97;2.27;;;15.90;99.90;;;;;;5060752;28;20470;-81
2022/10/03 11:14:40;;;;;;;3.13;2.07;;;16.00;99.90;;;;;;5060036;28;20386;-82
2022/10/03 11:18:02;;;;;;;3.20;2.97;;;16.50;99.90;;;;;;5035500;27;1334327;-81
2022/10/03 11:21:20;;;;;;;4.60;2.20;;;16.90;99.90;;;;;;5056494;28;20440;-79
2022/10/03 11:24:39;;;;;;;7.00;2.37;;;16.70;99.90;;;;;;5056316;28;20501;-81
2022/10/03 11:28:00;;;;;;;4.67;2.90;;;16.50;99.90;;;;;;5057001;28;20378;-81
2022/10/03 11:31:24;;;;;;;4.20;2.67;;;16.30;99.90;;;;;;5047749;28;20386;-81
2022/10/03 11:34:43;;;;;;;4.40;2.47;;;16.10;99.90;;;;;;5046005;28;20446;-80
2022/10/03 11:37:44;;;;;;;5.33;2.33;;;15.90;99.90;;;;;;5057440;28;20660;-81
2022/10/03 11:40:50;;;;;;;2.80;2.43;;;15.80;99.90;;;;;;5057288;28;20446;-82
2022/10/03 11:43:57;;;;;;;2.33;2.07;;;15.70;99.90;;;;;;5043960;28;20425;-82
2022/10/03 11:47:04;;;;;;;4.10;2.27;;;15.60;99.90;;;;;;5035188;28;20606;-81
2022/10/03 11:50:23;;;;;;;2.60;2.20;;;15.70;99.90;;;;;;5036830;28;20772;-82
2022/10/03 11:53:41;;;;;;;5.90;2.90;;;16.00;99.90;;;;;;5000153;28;20411;-81
2022/10/03 11:56:38;;;;;;;2.70;1.83;;;16.40;99.90;;;;;;5007806;28;20508;-80
2022/10/03 11:59:37;;;;;;;5.63;1.87;;;16.90;99.90;;;;;;5018771;28;20388;-82
2022/10/03 12:02:43;;;;;;;4.50;2.30;;;17.20;99.90;;;;;;5003828;28;20455;-82
2022/10/03 12:05:51;;;;;;;3.63;2.20;;;17.30;99.90;;;;;;5016704;28;20391;-81
2022/10/03 12:11:52;;;;;;;5.60;2.20;;;19.40;99.90;;;;;;5014545;28;20894;-82
2022/10/03 12:14:45;;;;;;;5.87;2.17;;;19.60;99.90;;;;;;5014559;28;20914;-81
2022/10/03 12:17:37;;;;;;;3.83;1.70;;;19.70;99.90;;;;;;5028669;28;20453;-81
2022/10/03 12:20:34;;;;;;;3.47;1.90;;;19.50;99.90;;;;;;5008945;28;20831;-82
2022/10/03 12:23:43;;;;;;;2.13;1.73;;;19.40;99.90;;;;;;5037893;28;20468;-82
2022/10/03 12:26:46;;;;;;;5.27;1.60;;;18.90;99.90;;;;;;5035617;28;20459;-81
2022/10/03 12:29:35;;;;;;;2.23;1.70;;;18.30;99.90;;;;;;5023467;28;20416;-80
2022/10/03 12:32:30;;;;;;;2.13;2.03;;;17.90;99.90;;;;;;5002577;28;20809;-82
2022/10/03 12:35:39;;;;;;;4.23;2.17;;;17.60;99.90;;;;;;4993380;28;20412;-79
2022/10/03 12:38:40;;;;;;;5.57;2.10;;;17.20;99.90;;;;;;4990534;28;20428;-81
2022/10/03 12:41:50;;;;;;;4.63;1.97;;;16.90;99.90;;;;;;4966270;28;20443;-79
2022/10/03 12:44:56;;;;;;;6.40;2.07;;;16.70;99.90;;;;;;5002580;28;20404;-81
2022/10/03 12:48:01;;;;;;;3.30;3.00;;;16.90;99.90;;;;;;4987713;28;20448;-80
2022/10/03 12:51:12;;;;;;;4.63;2.10;;;17.70;99.90;;;;;;4982698;28;20441;-82
2022/10/03 12:54:27;;;;;;;3.00;2.10;;;19.20;99.90;;;;;;4929725;29;20422;-82
2022/10/03 12:57:40;;;;;;;15.40;2.20;;;19.80;99.90;;;;;;4929509;29;20813;-82
2022/10/03 13:00:40;;;;;;;2.50;1.47;;;21.10;99.90;;;;;;4943830;29;20427;-82
2022/10/03 13:03:57;;;;;;;2.13;1.60;;;22.80;99.90;;;;;;4903731;29;20468;-81
2022/10/03 13:06:56;;;;;;;4.27;2.43;;;23.10;96.90;;;;;;4924547;29;20420;-83
2022/10/03 13:10:00;;;;;;;3.10;2.00;;;22.90;95.70;;;;;;4922665;29;20427;-82
2022/10/03 13:12:54;;;;;;;2.13;1.57;;;22.90;94.80;;;;;;4922616;29;20936;-81
2022/10/03 13:16:12;;;;;;;2.30;1.80;;;22.30;95.00;;;;;;4923565;29;20500;-82
2022/10/03 13:19:04;;;;;;;2.93;2.00;;;21.20;96.60;;;;;;4925171;29;20444;-82
2022/10/03 13:22:22;;;;;;;2.17;1.57;;;20.30;99.30;;;;;;4905979;29;20444;-82
2022/10/03 13:25:18;;;;;;;2.17;1.97;;;19.80;99.90;;;;;;4918633;29;20412;-82
2022/10/03 13:28:33;;;;;;;2.63;1.63;;;19.00;99.90;;;;;;4923916;29;20424;-82
2022/10/03 13:31:23;;;;;;;1.83;1.60;;;18.50;99.90;;;;;;4924085;29;20469;-83
2022/10/03 13:34:17;;;;;;;6.40;1.97;;;18.00;99.90;;;;;;4943527;29;20833;-82
2022/10/03 13:37:15;;;;;;;5.33;2.00;;;17.80;99.90;;;;;;4966123;28;20468;-83
2022/10/03 13:40:10;;;;;;;6.03;2.00;;;17.50;99.90;;;;;;5001590;28;20413;-82
2022/10/03 13:42:58;;;;;;;3.17;2.20;;;17.40;99.90;;;;;;5003038;28;20841;-82
2022/10/03 13:45:46;;;;;;;3.73;1.70;;;17.20;99.90;;;;;;5002733;28;20469;-83
2022/10/03 13:48:33;;;;;;;2.80;2.07;;;17.10;99.90;;;;;;5002575;28;20413;-80
2022/10/03 13:51:31;;;;;;;2.93;1.87;;;17.00;99.90;;;;;;5002289;28;20397;-82
2022/10/03 13:54:25;;;;;;;3.83;2.87;;;17.10;99.90;;;;;;5002923;28;20412;-83
2022/10/03 13:57:19;;;;;;;6.60;1.73;;;17.10;99.90;;;;;;5003587;28;20475;-83
2022/10/03 14:00:14;;;;;;;2.03;1.83;;;17.20;99.90;;;;;;5004224;28;20432;-82
2022/10/03 14:03:16;;;;;;;1.50;1.40;;;17.20;99.90;;;;;;5002241;28;20397;-83
2022/10/03 14:06:25;;;;;;;2.67;1.83;;;17.30;99.90;;;;;;5000996;28;20404;-82
2022/10/03 14:09:45;;;;;;;3.87;2.40;;;17.40;99.90;;;;;;5000546;28;20403;-82
2022/10/03 14:12:48;;;;;;;3.80;3.40;;;17.60;99.90;;;;;;5001114;28;20396;-81
2022/10/03 14:15:47;;;;;;;2.57;2.17;;;17.60;99.90;;;;;;5001541;28;20443;-83
2022/10/03 14:18:56;;;;;;;4.30;2.83;;;17.80;99.90;;;;;;4999669;28;20749;-81
2022/10/03 14:22:01;;;;;;;5.77;2.77;;;19.10;99.90;;;;;;5000537;28;20385;-82
2022/10/03 14:24:58;;;;;;;2.63;1.60;;;18.90;99.90;;;;;;4998755;28;20408;-81
2022/10/03 14:28:08;;;;;;;2.80;1.80;;;18.70;99.90;;;;;;4998480;28;20913;-82
2022/10/03 14:31:23;;;;;;;1.80;1.70;;;18.20;99.90;;;;;;5000946;28;20501;-80
2022/10/03 14:34:24;;;;;;;3.27;1.50;;;17.80;99.90;;;;;;4998624;28;20401;-81
2022/10/03 14:37:26;;;;;;;5.17;2.07;;;17.40;99.90;;;;;;4997912;28;20474;-82
2022/10/03 14:40:21;;;;;;;2.27;1.80;;;17.10;99.90;;;;;;4998204;28;20467;-81
2022/10/03 14:43:26;;;;;;;2.93;1.53;;;16.90;99.90;;;;;;4998064;28;20476;-82
2022/10/03 14:46:14;;;;;;;2.37;1.93;;;16.80;99.90;;;;;;5003147;28;20431;-80
2022/10/03 14:49:04;;;;;;;3.03;2.20;;;16.60;99.90;;;;;;4999136;28;20440;-82
2022/10/03 14:52:33;;;;;;;4.70;2.10;;;16.50;99.90;;;;;;4980656;28;20420;-82
2022/10/03 14:55:22;;;;;;;2.83;2.20;;;16.40;99.90;;;;;;4987525;28;20429;-81
2022/10/03 14:58:27;;;;;;;2.20;1.67;;;16.40;99.90;;;;;;4987892;28;20480;-79
2022/10/03 15:01:19;;;;;;;1.90;1.70;;;16.30;99.90;;;;;;4987013;28;20817;-79
2022/10/03 15:04:15;;;;;;;2.20;1.90;;;16.20;99.90;;;;;;4973735;28;20433;-79
2022/10/03 15:07:01;;;;;;;11.27;1.77;;;16.10;99.90;;;;;;4987858;28;20648;-80
2022/10/03 15:09:49;;;;;;;4.10;2.70;;;16.00;99.90;;;;;;4972939;28;20425;-81
2022/10/03 15:12:36;;;;;;;16.30;4.73;;;16.00;99.90;;;;;;4978181;28;20417;-81
2022/10/03 15:15:43;;;;;;;9.53;4.23;;;15.90;99.90;;;;;;4963850;28;20920;-81
2022/10/03 15:18:29;;;;;;;5.83;3.80;;;15.90;99.90;;;;;;4920293;29;20448;-83
2022/10/03 15:21:16;;;;;;;3.17;2.87;;;15.90;99.90;;;;;;4920344;29;20451;-81
2022/10/03 15:24:04;;;;;;;4.27;1.90;;;15.90;99.90;;;;;;4977610;28;20397;-82
2022/10/03 15:26:54;;;;;;;4.57;2.70;;;15.90;99.90;;;;;;4977047;28;20501;-82
2022/10/03 15:29:39;;;;;;;2.23;2.03;;;15.90;99.90;;;;;;4977871;28;20482;-82
2022/10/03 15:32:32;;;;;;;7.40;2.60;;;16.10;99.90;;;;;;4978487;28;20416;-82
2022/10/03 15:35:23;;;;;;;6.43;2.57;;;16.60;99.90;;;;;;4978919;28;20433;-82
2022/10/03 15:38:14;;;;;;;2.40;2.20;;;17.00;99.90;;;;;;4978122;28;20408;-80
2022/10/03 15:41:11;;;;;;;3.50;1.80;;;17.40;99.90;;;;;;4978546;28;20441;-81
2022/10/03 15:44:03;;;;;;;3.60;2.33;;;17.40;99.90;;;;;;4978329;28;20497;-82
2022/10/03 15:46:52;;;;;;;3.30;2.77;;;17.60;99.90;;;;;;4977819;28;20421;-83
2022/10/03 15:49:53;;;;;;;3.83;2.50;;;17.50;99.90;;;;;;5006409;28;20416;-79
2022/10/03 15:52:45;;;;;;;4.37;2.30;;;17.30;99.90;;;;;;5006395;28;20527;-82
2022/10/03 15:55:43;;;;;;;6.30;2.23;;;17.10;99.90;;;;;;5018422;28;20453;-82
2022/10/03 15:58:32;;;;;;;2.23;2.07;;;16.90;99.90;;;;;;5017652;28;20442;-82
2022/10/03 16:01:24;;;;;;;3.23;2.80;;;16.70;99.90;;;;;;5019619;28;20447;-80
2022/10/03 16:04:23;;;;;;;2.40;1.90;;;16.40;99.90;;;;;;5022995;28;20970;-81
2022/10/03 16:07:33;;;;;;;5.90;2.70;;;16.20;99.90;;;;;;5022149;28;20390;-84
2022/10/03 16:10:21;;;;;;;7.93;2.93;;;16.00;99.90;;;;;;5023806;28;20787;-82
2022/10/03 16:13:22;;;;;;;4.80;3.90;;;15.80;99.90;;;;;;5022775;28;20899;-82
2022/10/03 16:16:14;;;;;;;5.43;3.23;;;15.70;99.90;;;;;;5022871;28;20490;-82
2022/10/03 16:19:22;;;;;;;9.20;2.80;;;15.70;99.90;;;;;;5023046;28;20431;-82
2022/10/03 16:22:33;;;;;;;6.57;2.80;;;15.50;99.90;;;;;;5022006;28;20465;-82
2022/10/03 16:25:31;;;;;;;3.20;2.40;;;15.40;99.90;;;;;;5021981;28;20391;-80
2022/10/03 16:28:20;;;;;;;2.80;2.60;;;15.30;99.90;;;;;;5021595;28;20383;-81
2022/10/03 16:31:14;;;;;;;6.80;2.90;;;15.20;99.90;;;;;;5022417;28;20388;-82